createdAt,value
2023-05-08T00:00:40.929Z,102240.12
2023-05-08T00:04:11.200Z,102243.70
2023-05-08T00:07:48.973Z,102239.02
2023-05-08T00:11:36.283Z,102239.16
2023-05-08T00:15:24.027Z,102237.48
2023-05-08T00:19:11.677Z,102238.61
2023-05-08T00:22:59.588Z,102243.09
2023-05-08T00:26:46.211Z,102243.27
2023-05-08T00:30:33.637Z,102244.77
2023-05-08T00:33:33.635Z,102240.23
2023-05-08T00:37:09.192Z,102242.30
2023-05-08T00:40:56.800Z,102239.48
2023-05-08T00:44:44.406Z,102241.73
2023-05-08T00:48:06.047Z,102243.15
2023-05-08T00:51:36.397Z,102241.65
2023-05-08T00:55:23.836Z,102249.41
2023-05-08T00:59:01.313Z,102248.90
2023-05-08T01:02:49.109Z,102251.22
2023-05-08T01:06:26.759Z,102253.52
2023-05-08T01:10:01.801Z,102253.05
2023-05-08T01:13:58.531Z,102251.58
2023-05-08T01:17:53.810Z,102254.56
2023-05-08T01:21:59.662Z,102257.76
2023-05-08T01:25:52.618Z,102259.70
2023-05-08T01:29:58.154Z,102258.58
2023-05-08T01:33:33.191Z,102263.95
2023-05-08T01:37:38.795Z,102267.30
2023-05-08T01:41:27.578Z,102263.30
2023-05-08T01:45:24.127Z,102268.27
2023-05-08T01:49:14.330Z,102270.48
2023-05-08T01:52:50.267Z,102277.85
2023-05-08T01:56:33.219Z,102277.66
2023-05-08T02:00:20.956Z,102275.91
2023-05-08T02:04:08.620Z,102276.33
2023-05-08T02:07:56.242Z,102281.23
2023-05-08T02:11:28.252Z,102279.41
2023-05-08T02:14:55.284Z,102278.95
2023-05-08T02:18:42.937Z,102276.60
2023-05-08T02:22:07.920Z,102283.21
2023-05-08T02:25:28.509Z,102280.84
2023-05-08T02:29:15.949Z,102292.26
2023-05-08T02:32:45.559Z,102292.74
2023-05-08T02:36:33.083Z,102297.52
2023-05-08T02:39:59.022Z,102296.65
2023-05-08T02:43:33.156Z,102299.67
2023-05-08T02:47:15.803Z,102305.00
2023-05-08T02:51:03.879Z,102306.03
2023-05-08T02:54:50.478Z,102308.59
2023-05-08T02:58:37.825Z,102309.73
2023-05-08T03:02:28.408Z,102313.25
2023-05-08T03:06:16.111Z,102313.02
2023-05-08T03:10:03.657Z,102313.48
2023-05-08T03:13:27.388Z,102314.76
2023-05-08T03:17:15.322Z,102315.06
2023-05-08T03:21:02.974Z,102317.80
2023-05-08T03:24:50.408Z,102320.97
2023-05-08T03:28:30.251Z,102321.23
2023-05-08T03:31:38.463Z,102318.79
2023-05-08T03:35:25.908Z,102318.47
2023-05-08T03:38:46.449Z,102318.80
2023-05-08T03:42:36.998Z,102319.58
2023-05-08T03:46:25.965Z,102329.50
2023-05-08T03:50:13.624Z,102331.38
2023-05-08T03:54:01.318Z,102331.39
2023-05-08T03:57:39.228Z,102334.06
2023-05-08T04:01:41.668Z,102332.39
2023-05-08T04:05:18.363Z,102334.77
2023-05-08T04:09:05.879Z,102336.16
2023-05-08T04:13:02.542Z,102338.45
2023-05-08T04:16:28.323Z,102336.48
2023-05-08T04:20:15.859Z,102337.05
2023-05-08T04:24:02.616Z,102340.48
2023-05-08T04:27:40.800Z,102342.77
2023-05-08T04:31:28.744Z,102345.90
2023-05-08T04:35:02.280Z,102349.30
2023-05-08T04:38:50.045Z,102351.59
2023-05-08T04:42:30.412Z,102355.48
2023-05-08T04:45:50.249Z,102358.52
2023-05-08T04:49:18.218Z,102364.85
2023-05-08T04:52:49.503Z,102373.58
2023-05-08T04:56:29.182Z,102378.33
2023-05-08T05:00:16.715Z,102386.27
2023-05-08T05:03:59.940Z,102393.77
2023-05-08T05:07:34.956Z,102393.23
2023-05-08T05:11:23.176Z,102398.13
2023-05-08T05:15:11.001Z,102399.29
2023-05-08T05:18:57.334Z,102395.33
2023-05-08T05:22:45.574Z,102400.95
2023-05-08T05:26:35.207Z,102400.54
2023-05-08T05:30:23.927Z,102402.25
2023-05-08T05:34:11.033Z,102402.05
2023-05-08T05:37:59.030Z,102402.64
2023-05-08T05:41:38.656Z,102402.09
2023-05-08T05:45:30.210Z,102404.92
2023-05-08T05:49:20.080Z,102405.22
2023-05-08T05:53:06.977Z,102406.80
2023-05-08T05:56:55.049Z,102404.17
2023-05-08T06:00:42.741Z,102409.33
2023-05-08T06:04:24.561Z,102407.60
2023-05-08T06:08:12.230Z,102408.86
2023-05-08T06:11:59.908Z,102409.86
2023-05-08T06:15:48.635Z,102410.38
2023-05-08T06:19:35.511Z,102409.23
2023-05-08T06:24:03.031Z,102416.17
2023-05-08T06:27:50.898Z,102414.23
2023-05-08T06:31:40.727Z,102418.14
2023-05-08T06:35:28.723Z,102413.00
2023-05-08T06:39:38.965Z,102411.42
2023-05-08T06:43:47.962Z,102408.96
2023-05-08T06:47:55.551Z,102412.60
2023-05-08T06:51:43.166Z,102409.92
2023-05-08T06:55:31.308Z,102411.61
2023-05-08T06:59:34.878Z,102417.30
2023-05-08T07:03:46.991Z,102420.70
2023-05-08T07:07:56.572Z,102422.94
2023-05-08T07:11:45.018Z,102426.06
2023-05-08T07:15:33.629Z,102426.36
2023-05-08T07:19:22.628Z,102421.42
2023-05-08T07:23:32.035Z,102426.68
2023-05-08T07:27:21.315Z,102418.52
2023-05-08T07:31:09.114Z,102420.42
2023-05-08T07:34:57.620Z,102420.38
2023-05-08T07:38:45.215Z,102419.27
2023-05-08T07:42:53.033Z,102418.77
2023-05-08T07:46:58.129Z,102413.05
2023-05-08T07:50:50.167Z,102414.31
2023-05-08T07:54:30.450Z,102412.91
2023-05-08T07:58:18.732Z,102415.10
2023-05-08T08:02:08.091Z,102416.29
2023-05-08T08:06:01.888Z,102412.45
2023-05-08T08:09:51.190Z,102414.48
2023-05-08T08:13:47.629Z,102415.05
2023-05-08T08:17:56.039Z,102406.09
2023-05-08T08:21:46.486Z,102406.41
2023-05-08T08:25:36.014Z,102405.02
2023-05-08T08:29:24.051Z,102398.71
2023-05-08T08:33:13.559Z,102402.39
2023-05-08T08:37:07.479Z,102394.84
2023-05-08T08:40:56.323Z,102397.28
2023-05-08T08:45:25.284Z,102397.55
2023-05-08T08:49:14.770Z,102394.58
2023-05-08T08:53:24.265Z,102394.02
2023-05-08T08:57:16.775Z,102391.11
2023-05-08T09:01:09.477Z,102393.85
2023-05-08T09:04:59.955Z,102394.27
2023-05-08T09:09:07.682Z,102392.38
2023-05-08T09:12:56.330Z,102389.27
2023-05-08T09:16:50.067Z,102384.88
2023-05-08T09:20:38.696Z,102386.84
2023-05-08T09:24:36.388Z,102386.98
2023-05-08T09:28:33.356Z,102387.86
2023-05-08T09:32:39.188Z,102380.39
2023-05-08T09:36:30.772Z,102380.78
2023-05-08T09:40:56.936Z,102386.20
2023-05-08T09:44:48.144Z,102372.09
2023-05-08T09:48:36.523Z,102374.17
2023-05-08T09:52:32.868Z,102375.44
2023-05-08T09:56:28.608Z,102377.80
2023-05-08T10:00:48.244Z,102386.66
2023-05-08T10:04:47.117Z,102377.68
2023-05-08T10:08:59.643Z,102374.54
2023-05-08T10:13:08.578Z,102374.18
2023-05-08T10:17:36.959Z,102369.81
2023-05-08T10:21:45.690Z,102372.67
2023-05-08T10:26:02.238Z,102367.89
2023-05-08T10:29:59.972Z,102360.48
2023-05-08T10:34:11.586Z,102368.34
2023-05-08T10:38:39.488Z,102359.08
2023-05-08T10:42:28.645Z,102346.77
2023-05-08T10:47:14.268Z,102347.34
2023-05-08T10:51:05.006Z,102327.67
2023-05-08T10:55:16.850Z,102333.15
2023-05-08T10:59:10.421Z,102335.43
2023-05-08T11:02:59.187Z,102332.13
2023-05-08T11:07:25.524Z,102334.80
2023-05-08T11:11:15.229Z,102330.82
2023-05-08T11:15:08.764Z,102314.81
2023-05-08T11:18:57.939Z,102315.80
2023-05-08T11:22:55.431Z,102309.64
2023-05-08T11:27:19.294Z,102309.28
2023-05-08T11:31:12.745Z,102309.02
2023-05-08T11:34:59.370Z,102301.17
2023-05-08T11:39:05.047Z,102297.27
2023-05-08T11:43:06.841Z,102296.36
2023-05-08T11:47:16.147Z,102299.33
2023-05-08T11:51:24.492Z,102287.89
2023-05-08T11:55:53.470Z,102287.67
2023-05-08T12:00:04.716Z,102290.81
2023-05-08T12:04:14.475Z,102286.04
2023-05-08T12:08:05.552Z,102284.44
2023-05-08T12:12:14.517Z,102277.81
2023-05-08T12:16:23.450Z,102281.92
2023-05-08T12:20:33.276Z,102286.45
2023-05-08T12:24:31.205Z,102284.84
2023-05-08T12:28:39.812Z,102286.41
2023-05-08T12:32:29.072Z,102288.07
2023-05-08T12:36:19.230Z,102278.46
2023-05-08T12:40:11.461Z,102277.67
2023-05-08T12:44:23.034Z,102265.38
2023-05-08T12:48:11.927Z,102265.98
2023-05-08T12:52:19.936Z,102271.02
2023-05-08T12:56:21.057Z,102258.73
2023-05-08T13:00:14.225Z,102266.34
2023-05-08T13:04:24.773Z,102256.30
2023-05-08T13:08:14.331Z,102252.14
2023-05-08T13:12:05.762Z,102257.13
2023-05-08T13:15:54.489Z,102243.80
2023-05-08T13:19:42.014Z,102231.44
2023-05-08T13:23:50.246Z,102237.98
2023-05-08T13:27:38.972Z,102233.20
2023-05-08T13:31:44.433Z,102226.33
2023-05-08T13:35:32.703Z,102218.84
2023-05-08T13:39:22.469Z,102213.38
2023-05-08T13:43:10.418Z,102202.13
2023-05-08T13:46:59.597Z,102217.33
2023-05-08T13:50:47.710Z,102209.22
2023-05-08T13:54:37.912Z,102205.44
2023-05-08T13:58:45.113Z,102209.08
2023-05-08T14:02:33.272Z,102205.84
2023-05-08T14:06:23.890Z,102201.39
2023-05-08T14:09:57.534Z,102204.26
2023-05-08T14:13:47.224Z,102200.25
2023-05-08T14:17:37.884Z,102200.39
2023-05-08T14:21:58.369Z,102200.89
2023-05-08T14:25:46.820Z,102195.57
2023-05-08T14:29:35.559Z,102192.87
2023-05-08T14:33:19.713Z,102196.75
2023-05-08T14:37:09.263Z,102191.39
2023-05-08T14:40:58.820Z,102187.69
2023-05-08T14:44:47.768Z,102183.75
2023-05-08T14:48:37.251Z,102177.02
2023-05-08T14:52:46.853Z,102176.20
2023-05-08T14:56:46.435Z,102167.56
2023-05-08T15:00:36.497Z,102171.17
2023-05-08T15:04:24.123Z,102167.70
2023-05-08T15:08:11.914Z,102168.05
2023-05-08T15:12:00.490Z,102171.89
2023-05-08T15:15:44.204Z,102167.79
2023-05-08T15:19:33.170Z,102167.38
2023-05-08T15:23:07.060Z,102165.92
2023-05-08T15:26:47.109Z,102161.80
2023-05-08T15:30:39.052Z,102162.02
2023-05-08T15:34:32.427Z,102155.74
2023-05-08T15:38:21.365Z,102155.02
2023-05-08T15:42:10.158Z,102151.77
2023-05-08T15:45:58.200Z,102155.86
2023-05-08T15:49:46.309Z,102153.23
2023-05-08T15:53:35.049Z,102149.86
2023-05-08T15:57:24.287Z,102147.42
2023-05-08T16:01:14.099Z,102149.97
2023-05-08T16:05:02.229Z,102149.70
2023-05-08T16:08:51.132Z,102149.23
2023-05-08T16:12:41.499Z,102139.64
2023-05-08T16:16:29.818Z,102132.20
2023-05-08T16:20:17.066Z,102131.46
2023-05-08T16:23:58.206Z,102133.07
2023-05-08T16:27:47.441Z,102132.13
2023-05-08T16:31:38.608Z,102129.13
2023-05-08T16:35:33.587Z,102120.60
2023-05-08T16:39:21.517Z,102119.92
2023-05-08T16:43:02.179Z,102124.27
2023-05-08T16:57:14.646Z,102118.11
2023-05-08T17:01:02.981Z,102121.44
2023-05-08T17:04:00.693Z,102119.85
2023-05-08T17:07:10.270Z,102120.48
2023-05-08T17:10:47.487Z,102126.90
2023-05-08T17:14:15.951Z,102127.25
2023-05-08T17:17:23.819Z,102127.67
2023-05-08T17:21:02.834Z,102128.33
2023-05-08T17:23:45.150Z,102129.09
2023-05-08T17:27:06.822Z,102131.40
2023-05-08T17:30:11.074Z,102135.98
2023-05-08T17:33:30.072Z,102141.59
2023-05-08T17:37:01.747Z,102141.30
2023-05-08T17:40:46.605Z,102137.53
2023-05-08T17:44:24.007Z,102138.14
2023-05-08T17:47:30.769Z,102141.18
2023-05-08T17:50:58.366Z,102140.02
2023-05-08T17:54:39.142Z,102142.48
2023-05-08T17:57:31.960Z,102144.20
2023-05-08T18:00:12.871Z,102146.19
2023-05-08T18:03:14.142Z,102148.59
2023-05-08T18:06:02.563Z,102146.70
2023-05-08T18:08:46.437Z,102151.14
2023-05-08T18:11:33.099Z,102154.96
2023-05-08T18:14:43.990Z,102159.19
2023-05-08T18:18:24.550Z,102161.34
2023-05-08T18:21:42.109Z,102161.50
2023-05-08T18:24:30.204Z,102159.85
2023-05-08T18:27:59.590Z,102164.45
2023-05-08T18:30:35.842Z,102168.61
2023-05-08T18:33:53.031Z,102169.34
2023-05-08T18:37:24.329Z,102172.45
2023-05-08T18:40:45.843Z,102177.52
2023-05-08T18:43:36.320Z,102181.96
2023-05-08T18:47:02.997Z,102186.56
2023-05-08T18:50:16.575Z,102192.30
2023-05-08T18:53:38.518Z,102196.05
2023-05-08T18:56:18.969Z,102198.50
2023-05-08T18:59:38.284Z,102201.10
2023-05-08T19:02:29.369Z,102196.02
2023-05-08T19:05:55.001Z,102199.02
2023-05-08T19:09:23.279Z,102203.02
2023-05-08T19:12:24.039Z,102205.70
2023-05-08T19:15:32.961Z,102208.98
2023-05-08T19:18:12.196Z,102211.91
2023-05-08T19:21:13.141Z,102210.98
2023-05-08T19:24:30.228Z,102208.30
2023-05-08T19:28:19.083Z,102208.60
2023-05-08T19:31:16.513Z,102207.84
2023-05-08T19:34:56.260Z,102205.59
2023-05-08T19:37:25.959Z,102207.79
2023-05-08T19:40:41.296Z,102207.32
2023-05-08T19:43:42.337Z,102206.23
2023-05-08T19:46:53.178Z,102204.73
2023-05-08T19:49:42.705Z,102204.61
2023-05-08T19:52:45.106Z,102203.80
2023-05-08T19:55:56.162Z,102201.45
2023-05-08T19:59:29.128Z,102201.33
2023-05-08T20:02:38.019Z,102204.03
2023-05-08T20:05:30.056Z,102208.09
2023-05-08T20:08:04.542Z,102208.88
2023-05-08T20:11:24.703Z,102207.02
2023-05-08T20:14:42.110Z,102206.14
2023-05-08T20:17:19.198Z,102205.13
2023-05-08T20:19:49.312Z,102208.56
2023-05-08T20:22:57.449Z,102209.59
2023-05-08T20:25:36.741Z,102208.13
2023-05-08T20:31:52.966Z,102206.40
2023-05-08T20:34:44.552Z,102205.19
2023-05-08T20:38:15.642Z,102208.55
2023-05-08T20:41:10.006Z,102206.67
2023-05-08T20:43:58.628Z,102215.40
2023-05-08T20:46:58.749Z,102212.14
2023-05-08T20:49:50.968Z,102209.89
2023-05-08T20:53:05.990Z,102207.84
2023-05-08T20:56:48.515Z,102206.92
2023-05-08T20:59:47.255Z,102209.05
2023-05-08T21:02:39.972Z,102205.34
2023-05-08T21:05:11.852Z,102202.24
2023-05-08T21:08:12.791Z,102202.32
2023-05-08T21:10:45.892Z,102198.73
2023-05-08T21:13:57.246Z,102199.02
2023-05-08T21:17:04.077Z,102197.88
2023-05-08T21:19:37.440Z,102197.08
2023-05-08T21:23:05.199Z,102196.48
2023-05-08T21:26:26.969Z,102195.49
2023-05-08T21:29:44.208Z,102197.02
2023-05-08T21:32:46.283Z,102200.20
2023-05-08T21:35:37.960Z,102199.69
2023-05-08T21:38:14.386Z,102198.20
2023-05-08T21:40:41.688Z,102195.75
2023-05-08T21:43:32.198Z,102197.56
2023-05-08T21:46:04.247Z,102197.43
2023-05-08T21:48:35.152Z,102198.98
2023-05-08T21:51:31.833Z,102199.75
2023-05-08T21:54:32.611Z,102200.76
2023-05-08T21:57:03.031Z,102202.93
2023-05-08T21:59:30.293Z,102202.73
2023-05-08T22:02:10.602Z,102202.36
2023-05-08T22:04:45.238Z,102201.23
2023-05-08T22:07:35.058Z,102201.55
2023-05-08T22:10:21.158Z,102199.87
2023-05-08T22:12:50.842Z,102198.79
2023-05-08T22:16:08.503Z,102199.63
2023-05-08T22:18:40.069Z,102199.09
2023-05-08T22:21:07.051Z,102194.20
2023-05-08T22:24:04.705Z,102195.26
2023-05-08T22:26:34.202Z,102197.17
2023-05-08T22:29:11.413Z,102200.77
2023-05-08T22:31:40.753Z,102195.95
2023-05-08T22:34:49.039Z,102196.80
2023-05-08T22:37:19.069Z,102193.94
2023-05-08T22:39:55.932Z,102199.27
2023-05-08T22:42:55.606Z,102196.64
2023-05-08T22:45:46.018Z,102195.16
2023-05-08T22:49:41.852Z,102193.88
2023-05-08T22:53:51.337Z,102195.55
2023-05-08T22:58:20.443Z,102189.23
2023-05-08T23:02:49.969Z,102184.23
2023-05-08T23:07:04.571Z,102183.08
2023-05-08T23:11:29.039Z,102186.57
2023-05-08T23:15:18.381Z,102184.39
2023-05-08T23:18:58.165Z,102185.08
2023-05-08T23:23:27.062Z,102182.85
2023-05-08T23:27:56.205Z,102182.02
2023-05-08T23:32:25.179Z,102181.41
2023-05-08T23:36:57.229Z,102176.59
2023-05-08T23:40:46.966Z,102175.57
2023-05-08T23:44:57.685Z,102175.48
2023-05-08T23:49:10.765Z,102169.05
2023-05-08T23:53:19.582Z,102168.00
2023-05-08T23:57:28.418Z,102164.84
